Terminal Aerodrome Forecast
Issued by NWS

Home | Current Version | Previous Version | Text Only | Print | Product List | Glossary On
Versions: 1 2 3 4 5 6 7 8 9 10 11 12 13
000
FTUS44 KEPZ 270528
TAFLRU
TAF
KLRU 270528Z 2706/2806 12015G25KT P6SM BKN250
      TEMPO 2707/2711 12025G35KT 6SM BLDU
     FM271500 12010KT P6SM SCT060 BKN100 OVC250
     FM272100 13008KT P6SM VCSH SCT060 SCT100 BKN250=

USA.gov is the U.S. government's official web portal to all federal, state and local government web resources and services.